createdAt,value
2022-12-31T00:00:17.442Z,955.10
2022-12-31T00:01:17.383Z,955.13
2022-12-31T00:02:17.490Z,955.19
2022-12-31T00:03:17.437Z,955.15
2022-12-31T00:04:17.375Z,955.14
2022-12-31T00:05:17.316Z,955.10
2022-12-31T00:06:17.310Z,955.14
2022-12-31T00:07:17.326Z,955.14
2022-12-31T00:08:17.301Z,955.24
2022-12-31T00:09:17.281Z,955.20
2022-12-31T00:10:17.252Z,955.24
2022-12-31T00:11:17.245Z,955.25
2022-12-31T00:12:17.252Z,955.23
2022-12-31T00:13:17.250Z,955.25
2022-12-31T00:14:17.196Z,955.30
2022-12-31T00:15:17.240Z,955.29
2022-12-31T00:16:17.203Z,955.31
2022-12-31T00:17:17.159Z,955.25
2022-12-31T00:18:17.171Z,955.16
2022-12-31T00:19:17.168Z,955.24
2022-12-31T00:20:17.114Z,955.28
2022-12-31T00:21:17.110Z,955.24
2022-12-31T00:22:17.088Z,955.22
2022-12-31T00:23:17.080Z,955.26
2022-12-31T00:24:17.081Z,955.28
2022-12-31T00:25:17.074Z,955.26
2022-12-31T00:26:17.034Z,955.26
2022-12-31T00:27:17.031Z,955.18
2022-12-31T00:28:17.032Z,955.16
2022-12-31T00:29:17.027Z,955.12
2022-12-31T00:30:16.982Z,955.18
2022-12-31T00:31:16.990Z,955.19
2022-12-31T00:32:16.958Z,955.25
2022-12-31T00:33:16.980Z,955.22
2022-12-31T00:34:16.930Z,955.21
2022-12-31T00:35:16.919Z,955.24
2022-12-31T00:36:16.938Z,955.26
2022-12-31T00:37:16.896Z,955.24
2022-12-31T00:38:16.872Z,955.16
2022-12-31T00:39:16.871Z,955.07
2022-12-31T00:40:16.889Z,955.12
2022-12-31T00:41:16.881Z,955.10
2022-12-31T00:42:16.825Z,955.08
2022-12-31T00:43:16.835Z,955.15
2022-12-31T00:44:16.799Z,955.18
2022-12-31T00:45:16.815Z,955.14
2022-12-31T00:46:16.804Z,955.14
2022-12-31T00:47:16.768Z,955.15
2022-12-31T00:48:16.742Z,955.14
2022-12-31T00:49:16.809Z,955.20
2022-12-31T00:50:16.721Z,955.15
2022-12-31T00:51:16.711Z,955.17
2022-12-31T00:52:16.685Z,955.28
2022-12-31T00:53:16.709Z,955.12
2022-12-31T00:54:16.662Z,955.29
2022-12-31T00:55:16.660Z,955.26
2022-12-31T00:56:16.639Z,955.30
2022-12-31T00:57:16.637Z,955.29
2022-12-31T00:58:16.638Z,955.26
2022-12-31T00:59:16.602Z,955.33
2022-12-31T01:00:16.586Z,955.36
2022-12-31T01:01:16.707Z,955.37
2022-12-31T01:02:16.751Z,955.37
2022-12-31T01:03:16.598Z,955.47
2022-12-31T01:04:16.527Z,955.41
2022-12-31T01:05:16.527Z,955.47
2022-12-31T01:06:16.495Z,955.45
2022-12-31T01:07:16.527Z,955.43
2022-12-31T01:08:16.503Z,955.44
2022-12-31T01:09:16.484Z,955.50
2022-12-31T01:10:16.451Z,955.49
2022-12-31T01:11:16.440Z,955.46
2022-12-31T01:12:16.427Z,955.44
2022-12-31T01:13:16.437Z,955.48
2022-12-31T01:14:16.422Z,955.49
2022-12-31T01:15:16.415Z,955.49
2022-12-31T01:16:16.376Z,955.52
2022-12-31T01:17:16.378Z,955.50
2022-12-31T01:18:16.337Z,955.53
2022-12-31T01:19:16.374Z,955.57
2022-12-31T01:20:16.328Z,955.61
2022-12-31T01:21:16.329Z,955.59
2022-12-31T01:22:16.290Z,955.65
2022-12-31T01:23:16.284Z,955.62
2022-12-31T01:24:16.288Z,955.63
2022-12-31T01:25:16.246Z,955.57
2022-12-31T01:26:16.238Z,955.57
2022-12-31T01:27:16.227Z,955.60
2022-12-31T01:28:16.227Z,955.60
2022-12-31T01:29:16.192Z,955.67
2022-12-31T01:30:16.178Z,955.66
2022-12-31T01:31:16.237Z,955.74
2022-12-31T01:32:16.153Z,955.74
2022-12-31T01:33:16.151Z,955.76
2022-12-31T01:34:16.141Z,955.84
2022-12-31T01:35:16.135Z,955.84
2022-12-31T01:36:20.356Z,955.84
2022-12-31T01:37:16.108Z,955.85
2022-12-31T01:38:16.081Z,955.90
2022-12-31T01:39:16.079Z,955.86
2022-12-31T01:40:16.069Z,955.86
2022-12-31T01:41:16.037Z,955.91
2022-12-31T01:42:16.033Z,955.96
2022-12-31T01:43:16.014Z,955.93
2022-12-31T01:44:15.988Z,955.91
2022-12-31T01:45:15.993Z,955.87
2022-12-31T01:46:15.993Z,955.89
2022-12-31T01:47:16.012Z,955.93
2022-12-31T01:48:15.939Z,956.08
2022-12-31T01:49:15.929Z,956.14
2022-12-31T01:50:15.910Z,956.12
2022-12-31T01:51:15.913Z,956.09
2022-12-31T01:52:15.923Z,956.11
2022-12-31T01:53:15.877Z,956.15
2022-12-31T01:54:15.853Z,956.15
2022-12-31T01:55:15.867Z,956.14
2022-12-31T01:56:15.831Z,956.15
2022-12-31T01:57:15.860Z,956.10
2022-12-31T01:58:15.804Z,956.09
2022-12-31T01:59:15.823Z,956.10
2022-12-31T02:00:15.820Z,956.14
2022-12-31T02:01:15.896Z,956.06
2022-12-31T02:02:15.941Z,956.03
2022-12-31T02:03:15.821Z,956.05
2022-12-31T02:04:15.720Z,956.06
2022-12-31T02:05:15.759Z,956.08
2022-12-31T02:06:15.688Z,956.06
2022-12-31T02:07:15.722Z,956.19
2022-12-31T02:08:15.663Z,956.12
2022-12-31T02:09:15.672Z,956.14
2022-12-31T02:10:15.650Z,956.05
2022-12-31T02:11:15.637Z,956.09
2022-12-31T02:12:15.641Z,956.11
2022-12-31T02:13:15.609Z,956.18
2022-12-31T02:14:15.590Z,956.14
2022-12-31T02:15:15.579Z,956.24
2022-12-31T02:16:15.623Z,956.19
2022-12-31T02:17:15.564Z,956.15
2022-12-31T02:18:15.553Z,956.17
2022-12-31T02:19:15.528Z,956.17
2022-12-31T02:20:15.520Z,956.19
2022-12-31T02:21:15.531Z,956.17
2022-12-31T02:22:15.497Z,956.19
2022-12-31T02:23:15.491Z,956.15
2022-12-31T02:24:15.453Z,956.13
2022-12-31T02:25:15.462Z,956.19
2022-12-31T02:26:15.467Z,956.20
2022-12-31T02:27:15.421Z,956.15
2022-12-31T02:28:15.405Z,956.14
2022-12-31T02:29:15.406Z,956.13
2022-12-31T02:30:15.377Z,956.15
2022-12-31T02:31:16.927Z,956.20
2022-12-31T02:32:15.373Z,956.24
2022-12-31T02:33:15.341Z,956.31
2022-12-31T02:34:15.337Z,956.36
2022-12-31T02:35:15.339Z,956.27
2022-12-31T02:36:15.289Z,956.19
2022-12-31T02:37:15.315Z,956.22
2022-12-31T02:38:15.300Z,956.25
2022-12-31T02:39:15.273Z,956.33
2022-12-31T02:40:15.267Z,956.32
2022-12-31T02:41:15.262Z,956.33
2022-12-31T02:42:15.211Z,956.29
2022-12-31T02:43:15.229Z,956.34
2022-12-31T02:44:15.181Z,956.34
2022-12-31T02:45:15.241Z,956.35
2022-12-31T02:46:15.202Z,956.34
2022-12-31T02:47:15.183Z,956.37
2022-12-31T02:48:15.133Z,956.33
2022-12-31T02:49:15.189Z,956.29
2022-12-31T02:50:15.112Z,956.31
2022-12-31T02:51:15.092Z,956.35
2022-12-31T02:52:15.131Z,956.33
2022-12-31T02:53:15.067Z,956.27
2022-12-31T02:54:15.114Z,956.27
2022-12-31T02:55:15.040Z,956.33
2022-12-31T02:56:15.063Z,956.33
2022-12-31T02:57:15.025Z,956.30
2022-12-31T02:58:15.011Z,956.32
2022-12-31T02:59:15.003Z,956.27
2022-12-31T03:00:15.012Z,956.37
2022-12-31T03:01:15.045Z,956.33
2022-12-31T03:02:15.133Z,956.26
2022-12-31T03:03:14.936Z,956.26
2022-12-31T03:04:14.927Z,956.30
2022-12-31T03:05:14.935Z,956.32
2022-12-31T03:06:14.899Z,956.39
2022-12-31T03:07:14.925Z,956.36
2022-12-31T03:08:14.876Z,956.33
2022-12-31T03:09:14.875Z,956.39
2022-12-31T03:10:14.856Z,956.41
2022-12-31T03:11:14.840Z,956.34
2022-12-31T03:12:14.844Z,956.44
2022-12-31T03:13:14.804Z,956.46
2022-12-31T03:14:14.803Z,956.46
2022-12-31T03:15:14.857Z,956.42
2022-12-31T03:16:14.802Z,956.30
2022-12-31T03:17:14.749Z,956.35
2022-12-31T03:18:14.743Z,956.44
2022-12-31T03:19:14.718Z,956.44
2022-12-31T03:20:14.858Z,956.44
2022-12-31T03:21:14.696Z,956.38
2022-12-31T03:22:14.683Z,956.41
2022-12-31T03:23:14.671Z,956.45
2022-12-31T03:24:14.691Z,956.46
2022-12-31T03:25:14.644Z,956.45
2022-12-31T03:26:14.646Z,956.44
2022-12-31T03:27:14.611Z,956.41
2022-12-31T03:28:14.616Z,956.41
2022-12-31T03:29:14.623Z,956.46
2022-12-31T03:30:14.603Z,956.63
2022-12-31T03:31:14.602Z,956.59
2022-12-31T03:32:14.580Z,956.60
2022-12-31T03:33:14.543Z,956.56
2022-12-31T03:34:14.531Z,956.59
2022-12-31T03:35:14.531Z,956.58
2022-12-31T03:36:14.556Z,956.64
2022-12-31T03:37:14.489Z,956.64
2022-12-31T03:38:14.504Z,956.62
2022-12-31T03:39:14.459Z,956.56
2022-12-31T03:40:14.466Z,956.69
2022-12-31T03:41:14.432Z,956.73
2022-12-31T03:42:14.442Z,956.72
2022-12-31T03:43:14.405Z,956.72
2022-12-31T03:44:14.452Z,956.74
2022-12-31T03:45:14.397Z,956.74
2022-12-31T03:46:14.459Z,956.73
2022-12-31T03:47:14.357Z,956.76
2022-12-31T03:48:14.374Z,956.81
2022-12-31T03:49:14.334Z,956.83
2022-12-31T03:50:14.326Z,956.88
2022-12-31T03:51:14.314Z,956.85
2022-12-31T03:52:14.299Z,956.83
2022-12-31T03:53:14.303Z,956.80
2022-12-31T03:54:14.269Z,956.78
2022-12-31T03:55:14.269Z,956.80
2022-12-31T03:56:14.241Z,956.78
2022-12-31T03:57:14.211Z,956.73
2022-12-31T03:58:14.212Z,956.82
2022-12-31T03:59:14.189Z,956.87
2022-12-31T04:00:14.205Z,956.91
2022-12-31T04:01:14.284Z,956.81
2022-12-31T04:02:14.326Z,956.73
2022-12-31T04:03:14.203Z,956.78
2022-12-31T04:04:14.157Z,956.79
2022-12-31T04:05:14.103Z,956.85
2022-12-31T04:06:14.163Z,956.93
2022-12-31T04:07:14.096Z,956.88
2022-12-31T04:08:14.081Z,956.92
2022-12-31T04:09:14.079Z,956.88
2022-12-31T04:10:14.054Z,956.88
2022-12-31T04:11:20.505Z,956.90
2022-12-31T04:12:14.036Z,957.00
2022-12-31T04:13:14.028Z,956.96
2022-12-31T04:14:13.995Z,956.93
2022-12-31T04:15:13.981Z,956.94
2022-12-31T04:16:14.012Z,956.98
2022-12-31T04:17:13.938Z,956.99
2022-12-31T04:18:13.942Z,957.01
2022-12-31T04:19:13.924Z,956.99
2022-12-31T04:20:13.986Z,956.90
2022-12-31T04:21:13.898Z,956.98
2022-12-31T04:22:13.897Z,957.11
2022-12-31T04:23:13.869Z,957.11
2022-12-31T04:24:13.892Z,957.05
2022-12-31T04:25:13.836Z,957.05
2022-12-31T04:26:13.836Z,957.10
2022-12-31T04:27:13.808Z,957.11
2022-12-31T04:28:13.863Z,957.13
2022-12-31T04:29:13.818Z,957.15
2022-12-31T04:30:13.957Z,957.12
2022-12-31T04:31:13.805Z,957.20
2022-12-31T04:32:13.763Z,957.25
2022-12-31T04:33:13.763Z,957.26
2022-12-31T04:34:13.756Z,957.24
2022-12-31T04:35:13.712Z,957.30
2022-12-31T04:36:13.698Z,957.33
2022-12-31T04:37:13.682Z,957.36
2022-12-31T04:38:13.676Z,957.35
2022-12-31T04:39:13.680Z,957.37
2022-12-31T04:40:13.653Z,957.36
2022-12-31T04:41:13.623Z,957.38
2022-12-31T04:42:13.665Z,957.41
2022-12-31T04:43:13.632Z,957.41
2022-12-31T04:44:13.601Z,957.42
2022-12-31T04:45:13.573Z,957.47
2022-12-31T04:46:13.607Z,957.51
2022-12-31T04:47:17.407Z,957.53
2022-12-31T04:48:13.563Z,957.56
2022-12-31T04:49:13.514Z,957.60
2022-12-31T04:50:13.522Z,957.59
2022-12-31T04:51:13.528Z,957.58
2022-12-31T04:52:13.507Z,957.54
2022-12-31T04:53:13.479Z,957.39
2022-12-31T04:54:13.469Z,957.37
2022-12-31T04:55:13.462Z,957.38
2022-12-31T04:56:13.451Z,957.40
2022-12-31T04:57:13.448Z,957.36
2022-12-31T04:58:13.409Z,957.35
2022-12-31T04:59:13.386Z,957.38
2022-12-31T05:00:13.424Z,957.38
2022-12-31T05:01:13.516Z,957.37
2022-12-31T05:02:13.627Z,957.37
2022-12-31T05:03:13.500Z,957.31
2022-12-31T05:04:13.333Z,957.37
2022-12-31T05:05:13.304Z,957.38
2022-12-31T05:06:13.300Z,957.34
2022-12-31T05:07:13.308Z,957.42
2022-12-31T05:08:13.348Z,957.49
2022-12-31T05:09:13.260Z,957.51
2022-12-31T05:10:13.247Z,957.52
2022-12-31T05:11:13.258Z,957.49
2022-12-31T05:12:13.261Z,957.58
2022-12-31T05:13:13.219Z,957.52
2022-12-31T05:14:13.206Z,957.49
2022-12-31T05:15:13.205Z,957.56
2022-12-31T05:16:13.219Z,957.50
2022-12-31T05:17:13.163Z,957.56
2022-12-31T05:18:13.263Z,957.66
2022-12-31T05:19:13.148Z,957.77
2022-12-31T05:20:13.187Z,957.78
2022-12-31T05:21:13.090Z,957.77
2022-12-31T05:22:13.112Z,957.82
2022-12-31T05:23:13.052Z,957.91
2022-12-31T05:24:13.096Z,957.93
2022-12-31T05:25:13.049Z,957.97
2022-12-31T05:26:13.033Z,958.03
2022-12-31T05:27:13.036Z,958.05
2022-12-31T05:28:13.009Z,958.00
2022-12-31T05:29:12.985Z,958.03
2022-12-31T05:30:13.030Z,958.02
2022-12-31T05:31:13.016Z,957.88
2022-12-31T05:32:12.956Z,957.81
2022-12-31T05:33:12.959Z,957.78
2022-12-31T05:34:12.924Z,957.76
2022-12-31T05:35:12.903Z,957.78
2022-12-31T05:36:12.935Z,957.81
2022-12-31T05:37:12.898Z,957.82
2022-12-31T05:38:12.877Z,957.81
2022-12-31T05:39:12.929Z,957.77
2022-12-31T05:40:12.860Z,957.85
2022-12-31T05:41:12.827Z,957.77
2022-12-31T05:42:12.823Z,957.71
2022-12-31T05:43:12.837Z,957.73
2022-12-31T05:44:12.787Z,957.72
2022-12-31T05:45:12.764Z,957.74
2022-12-31T05:46:12.790Z,957.80
2022-12-31T05:47:12.748Z,957.81
2022-12-31T05:48:12.777Z,957.73
2022-12-31T05:49:12.732Z,957.67
2022-12-31T05:50:12.724Z,957.63
2022-12-31T05:51:12.699Z,957.67
2022-12-31T05:52:12.714Z,957.61
2022-12-31T05:53:12.671Z,957.70
2022-12-31T05:54:12.666Z,957.73
2022-12-31T05:55:12.670Z,957.73
2022-12-31T05:56:12.657Z,957.72
2022-12-31T05:57:12.627Z,957.66
2022-12-31T05:58:12.626Z,957.68
2022-12-31T05:59:12.603Z,957.66
2022-12-31T06:00:12.601Z,957.59
2022-12-31T06:01:12.580Z,957.65
2022-12-31T06:02:12.716Z,957.76
2022-12-31T06:03:12.689Z,957.78
2022-12-31T06:04:12.530Z,957.83
2022-12-31T06:05:12.528Z,957.83
2022-12-31T06:06:12.497Z,957.83
2022-12-31T06:07:12.478Z,957.81
2022-12-31T06:08:12.500Z,957.86
2022-12-31T06:09:12.472Z,957.83
2022-12-31T06:10:12.451Z,957.81
2022-12-31T06:11:12.425Z,957.82
2022-12-31T06:12:12.419Z,957.79
2022-12-31T06:13:12.427Z,957.81
2022-12-31T06:14:12.432Z,957.82
2022-12-31T06:15:12.371Z,957.79
2022-12-31T06:16:12.425Z,957.83
2022-12-31T06:17:12.351Z,957.84
2022-12-31T06:18:12.365Z,957.83
2022-12-31T06:19:12.314Z,957.83
2022-12-31T06:20:13.248Z,957.81
2022-12-31T06:21:12.298Z,957.78
2022-12-31T06:22:12.311Z,957.91
2022-12-31T06:23:12.258Z,957.88
2022-12-31T06:24:12.278Z,957.86
2022-12-31T06:25:12.241Z,957.86
2022-12-31T06:26:12.261Z,957.86
2022-12-31T06:27:12.211Z,957.85
2022-12-31T06:28:19.685Z,957.77
2022-12-31T06:29:12.195Z,957.70
2022-12-31T06:30:12.178Z,957.71
2022-12-31T06:31:12.380Z,957.69
2022-12-31T06:32:12.160Z,957.73
2022-12-31T06:33:12.137Z,957.74
2022-12-31T06:34:12.125Z,957.73
2022-12-31T06:35:12.096Z,957.72
2022-12-31T06:36:12.133Z,957.70
2022-12-31T06:37:12.071Z,957.65
2022-12-31T06:38:12.077Z,957.70
2022-12-31T06:39:12.074Z,957.69
2022-12-31T06:40:12.045Z,957.66
2022-12-31T06:41:12.059Z,957.64
2022-12-31T06:42:12.048Z,957.70
2022-12-31T06:43:12.180Z,957.67
2022-12-31T06:44:11.989Z,957.67
2022-12-31T06:45:11.992Z,957.62
2022-12-31T06:46:12.021Z,957.58
2022-12-31T06:47:11.973Z,957.60
2022-12-31T06:48:11.970Z,957.54
2022-12-31T06:49:11.942Z,957.56
2022-12-31T06:50:11.906Z,957.62
2022-12-31T06:51:16.740Z,957.58
2022-12-31T06:52:11.921Z,957.60
2022-12-31T06:53:11.867Z,957.67
2022-12-31T06:54:11.875Z,957.74
2022-12-31T06:55:11.837Z,957.78
2022-12-31T06:56:11.825Z,957.77
2022-12-31T06:57:11.832Z,957.68
2022-12-31T06:58:11.827Z,957.72
2022-12-31T06:59:11.794Z,957.76
2022-12-31T07:00:11.766Z,957.77
2022-12-31T07:01:11.792Z,957.78
2022-12-31T07:02:11.806Z,957.77
2022-12-31T07:03:11.818Z,957.81
2022-12-31T07:04:11.768Z,957.82
2022-12-31T07:05:11.704Z,957.91
2022-12-31T07:06:11.711Z,957.88
2022-12-31T07:07:11.678Z,957.88
2022-12-31T07:08:11.665Z,957.89
2022-12-31T07:09:11.656Z,957.86
2022-12-31T07:10:11.654Z,957.89
2022-12-31T07:11:11.669Z,957.86
2022-12-31T07:12:11.630Z,957.93
2022-12-31T07:13:11.623Z,957.93
2022-12-31T07:14:11.580Z,958.00
2022-12-31T07:15:11.579Z,958.00
2022-12-31T07:16:11.712Z,957.98
2022-12-31T07:17:11.544Z,957.99
2022-12-31T07:18:11.548Z,957.97
2022-12-31T07:19:11.530Z,957.90
2022-12-31T07:20:11.488Z,957.87
2022-12-31T07:21:11.487Z,957.93
2022-12-31T07:22:11.502Z,957.99
2022-12-31T07:23:11.468Z,958.04
2022-12-31T07:24:11.486Z,958.17
2022-12-31T07:25:11.463Z,958.20
2022-12-31T07:26:11.416Z,958.25
2022-12-31T07:27:11.405Z,958.26
2022-12-31T07:28:11.407Z,958.28
2022-12-31T07:29:11.427Z,958.31
2022-12-31T07:30:11.399Z,958.31
2022-12-31T07:31:11.413Z,958.34
2022-12-31T07:32:11.325Z,958.38
2022-12-31T07:33:11.340Z,958.36
2022-12-31T07:34:11.331Z,958.37
2022-12-31T07:35:11.323Z,958.37
2022-12-31T07:36:11.292Z,958.35
2022-12-31T07:37:11.272Z,958.38
2022-12-31T07:38:11.248Z,958.38
2022-12-31T07:39:11.345Z,958.46
2022-12-31T07:40:11.233Z,958.45
2022-12-31T07:41:11.233Z,958.45
2022-12-31T07:42:11.200Z,958.47
2022-12-31T07:43:11.197Z,958.38
2022-12-31T07:44:11.202Z,958.41
2022-12-31T07:45:11.168Z,958.45
2022-12-31T07:46:11.187Z,958.52
2022-12-31T07:47:11.133Z,958.55
2022-12-31T07:48:11.117Z,958.55
2022-12-31T07:49:11.120Z,958.53
2022-12-31T07:50:11.094Z,958.51
2022-12-31T07:51:11.117Z,958.48
2022-12-31T07:52:11.055Z,958.47
2022-12-31T07:53:11.088Z,958.40
2022-12-31T07:54:14.266Z,958.46
2022-12-31T07:55:11.029Z,958.50
2022-12-31T07:56:11.002Z,958.51
2022-12-31T07:57:11.038Z,958.52
2022-12-31T07:58:10.973Z,958.49
2022-12-31T07:59:10.985Z,958.51
2022-12-31T08:00:10.990Z,958.49
2022-12-31T08:01:11.019Z,958.52
2022-12-31T08:02:11.046Z,958.48
2022-12-31T08:03:10.930Z,958.56
2022-12-31T08:04:10.936Z,958.58
2022-12-31T08:05:10.902Z,958.54
2022-12-31T08:06:10.909Z,958.55
2022-12-31T08:07:10.868Z,958.63
2022-12-31T08:08:10.876Z,958.69
2022-12-31T08:09:10.858Z,958.67
2022-12-31T08:10:17.334Z,958.68
2022-12-31T08:11:10.839Z,958.62
2022-12-31T08:12:10.801Z,958.60
2022-12-31T08:13:10.778Z,958.61
2022-12-31T08:14:10.765Z,958.68
2022-12-31T08:15:10.787Z,958.70
2022-12-31T08:16:10.812Z,958.66
2022-12-31T08:17:10.746Z,958.75
2022-12-31T08:18:10.712Z,958.75
2022-12-31T08:19:10.719Z,958.88
2022-12-31T08:20:10.725Z,958.77
2022-12-31T08:21:10.721Z,958.81
2022-12-31T08:22:10.673Z,958.77
2022-12-31T08:23:10.692Z,958.80
2022-12-31T08:24:10.655Z,958.83
2022-12-31T08:25:10.629Z,958.78
2022-12-31T08:26:10.600Z,958.81
2022-12-31T08:27:10.634Z,958.75
2022-12-31T08:28:10.603Z,958.77
2022-12-31T08:29:10.569Z,958.79
2022-12-31T08:30:10.544Z,958.81
2022-12-31T08:31:10.631Z,958.76
2022-12-31T08:32:10.558Z,958.75
2022-12-31T08:33:10.525Z,958.82
2022-12-31T08:34:10.496Z,958.84
2022-12-31T08:35:10.499Z,958.85
2022-12-31T08:36:10.510Z,958.85
2022-12-31T08:37:10.468Z,958.84
2022-12-31T08:38:10.449Z,958.89
2022-12-31T08:39:10.436Z,958.91
2022-12-31T08:40:10.425Z,958.90
2022-12-31T08:41:10.483Z,958.81
2022-12-31T08:42:10.386Z,958.79
2022-12-31T08:43:10.403Z,958.85
2022-12-31T08:44:10.397Z,958.88
2022-12-31T08:45:10.367Z,958.94
2022-12-31T08:46:10.359Z,958.94
2022-12-31T08:47:10.338Z,958.87
2022-12-31T08:48:10.332Z,958.78
2022-12-31T08:49:10.309Z,958.87
2022-12-31T08:50:10.311Z,958.88
2022-12-31T08:51:10.308Z,958.90
2022-12-31T08:52:10.267Z,958.90
2022-12-31T08:53:10.287Z,958.85
2022-12-31T08:54:10.243Z,958.85
2022-12-31T08:55:10.232Z,958.80
2022-12-31T08:56:10.200Z,958.77
2022-12-31T08:57:10.215Z,958.72
2022-12-31T08:58:10.203Z,958.78
2022-12-31T08:59:10.173Z,958.79
2022-12-31T09:00:10.152Z,958.81
2022-12-31T09:01:10.226Z,958.82
2022-12-31T09:02:10.304Z,958.75
2022-12-31T09:03:10.147Z,958.82
2022-12-31T09:04:10.182Z,958.84
2022-12-31T09:05:10.096Z,958.86
2022-12-31T09:06:10.077Z,958.81
2022-12-31T09:07:10.064Z,958.91
2022-12-31T09:08:10.071Z,958.88
2022-12-31T09:09:10.065Z,958.94
2022-12-31T09:10:10.016Z,958.95
2022-12-31T09:11:10.079Z,958.93
2022-12-31T09:12:10.004Z,958.89
2022-12-31T09:13:09.994Z,958.91
2022-12-31T09:14:10.003Z,958.99
2022-12-31T09:15:10.010Z,958.97
2022-12-31T09:16:09.976Z,958.94
2022-12-31T09:17:09.934Z,958.88
2022-12-31T09:18:09.953Z,958.83
2022-12-31T09:19:09.919Z,958.80
2022-12-31T09:20:09.880Z,958.84
2022-12-31T09:21:09.877Z,958.72
2022-12-31T09:22:09.864Z,958.74
2022-12-31T09:23:09.877Z,958.79
2022-12-31T09:24:09.868Z,958.87
2022-12-31T09:25:09.828Z,958.86
2022-12-31T09:26:09.825Z,958.85
2022-12-31T09:27:09.826Z,958.93
2022-12-31T09:28:09.782Z,958.92
2022-12-31T09:29:09.782Z,958.90
2022-12-31T09:30:09.753Z,958.89
2022-12-31T09:31:09.740Z,958.84
2022-12-31T09:32:09.770Z,958.86
2022-12-31T09:33:09.743Z,958.79
2022-12-31T09:34:09.722Z,958.76
2022-12-31T09:35:09.695Z,958.76
2022-12-31T09:36:09.676Z,958.76
2022-12-31T09:37:09.700Z,958.76
2022-12-31T09:38:11.895Z,958.77
2022-12-31T09:39:09.655Z,958.75
2022-12-31T09:40:09.618Z,958.65
2022-12-31T09:41:09.606Z,958.71
2022-12-31T09:42:09.593Z,958.71
2022-12-31T09:43:09.602Z,958.78
2022-12-31T09:44:09.571Z,958.72
2022-12-31T09:45:09.552Z,958.76
2022-12-31T09:46:09.629Z,958.72
2022-12-31T09:47:09.535Z,958.69
2022-12-31T09:48:09.541Z,958.73
2022-12-31T09:49:09.536Z,958.77
2022-12-31T09:50:09.492Z,958.77
2022-12-31T09:51:09.492Z,958.79
2022-12-31T09:52:09.488Z,958.74
2022-12-31T09:53:09.480Z,958.75
2022-12-31T09:54:09.505Z,958.61
2022-12-31T09:55:09.451Z,958.59
2022-12-31T09:56:09.412Z,958.62
2022-12-31T09:57:09.402Z,958.61
2022-12-31T09:58:09.389Z,958.62
2022-12-31T09:59:09.377Z,958.62
2022-12-31T10:00:09.354Z,958.64
2022-12-31T10:01:09.499Z,958.62
2022-12-31T10:02:09.507Z,958.59
2022-12-31T10:03:09.404Z,958.60
2022-12-31T10:04:09.319Z,958.57
2022-12-31T10:05:09.313Z,958.52
2022-12-31T10:06:09.268Z,958.56
2022-12-31T10:07:09.291Z,958.53
2022-12-31T10:08:09.249Z,958.57
2022-12-31T10:09:09.265Z,958.59
2022-12-31T10:10:09.217Z,958.59
2022-12-31T10:11:09.222Z,958.62
2022-12-31T10:12:09.181Z,958.60
2022-12-31T10:13:09.229Z,958.58
2022-12-31T10:14:09.227Z,958.51
2022-12-31T10:15:09.157Z,958.51
2022-12-31T10:16:09.157Z,958.52
2022-12-31T10:17:09.299Z,958.59
2022-12-31T10:18:09.102Z,958.58
2022-12-31T10:19:09.098Z,958.52
2022-12-31T10:20:09.085Z,958.53
2022-12-31T10:21:09.098Z,958.48
2022-12-31T10:22:09.047Z,958.53
2022-12-31T10:23:09.049Z,958.54
2022-12-31T10:24:09.026Z,958.49
2022-12-31T10:25:09.047Z,958.47
2022-12-31T10:26:09.002Z,958.48
2022-12-31T10:27:09.029Z,958.52
2022-12-31T10:28:08.985Z,958.54
2022-12-31T10:29:09.022Z,958.52
2022-12-31T10:30:08.949Z,958.52
2022-12-31T10:31:09.031Z,958.52
2022-12-31T10:32:08.920Z,958.45
2022-12-31T10:33:08.947Z,958.47
2022-12-31T10:34:08.892Z,958.51
2022-12-31T10:35:08.883Z,958.49
2022-12-31T10:36:08.897Z,958.46
2022-12-31T10:37:08.862Z,958.44
2022-12-31T10:38:08.871Z,958.39
2022-12-31T10:39:13.480Z,958.46
2022-12-31T10:40:08.811Z,958.40
2022-12-31T10:41:08.833Z,958.41
2022-12-31T10:42:08.777Z,958.38
2022-12-31T10:43:08.812Z,958.35
2022-12-31T10:44:08.761Z,958.26
2022-12-31T10:45:08.773Z,958.34
2022-12-31T10:46:08.759Z,958.36
2022-12-31T10:47:08.748Z,958.31
2022-12-31T10:48:08.696Z,958.33
2022-12-31T10:49:08.702Z,958.32
2022-12-31T10:50:08.674Z,958.27
2022-12-31T10:51:08.689Z,958.29
2022-12-31T10:52:08.670Z,958.29
2022-12-31T10:53:08.663Z,958.26
2022-12-31T10:54:08.623Z,958.31
2022-12-31T10:55:08.656Z,958.33
2022-12-31T10:56:08.622Z,958.33
2022-12-31T10:57:08.620Z,958.29
2022-12-31T10:58:08.572Z,958.29
2022-12-31T10:59:08.567Z,958.31
2022-12-31T11:00:08.537Z,958.28
2022-12-31T11:01:08.643Z,958.23
2022-12-31T11:02:08.761Z,958.24
2022-12-31T11:03:08.575Z,958.26
2022-12-31T11:04:08.492Z,958.26
2022-12-31T11:05:08.534Z,958.24
2022-12-31T11:06:08.502Z,958.25
2022-12-31T11:07:08.458Z,958.18
2022-12-31T11:08:08.507Z,958.17
2022-12-31T11:09:08.414Z,958.20
2022-12-31T11:10:08.423Z,958.18
2022-12-31T11:11:08.429Z,958.15
2022-12-31T11:12:08.408Z,958.10
2022-12-31T11:13:08.369Z,958.19
2022-12-31T11:14:08.376Z,958.12
2022-12-31T11:15:08.363Z,958.11
2022-12-31T11:16:08.410Z,958.07
2022-12-31T11:17:08.341Z,958.07
2022-12-31T11:18:08.308Z,958.02
2022-12-31T11:19:08.288Z,958.07
2022-12-31T11:20:08.285Z,958.10
2022-12-31T11:21:08.291Z,958.08
2022-12-31T11:22:08.279Z,958.06
2022-12-31T11:23:08.245Z,958.05
2022-12-31T11:24:08.246Z,958.08
2022-12-31T11:25:08.203Z,958.07
2022-12-31T11:26:08.225Z,958.07
2022-12-31T11:27:08.183Z,958.01
2022-12-31T11:28:08.171Z,957.99
2022-12-31T11:29:08.179Z,957.98
2022-12-31T11:30:08.187Z,957.92
2022-12-31T11:31:08.181Z,957.95
2022-12-31T11:32:08.150Z,957.94
2022-12-31T11:33:08.130Z,957.93
2022-12-31T11:34:08.095Z,957.86
2022-12-31T11:35:08.084Z,957.84
2022-12-31T11:36:08.074Z,957.83
2022-12-31T11:37:08.099Z,957.89
2022-12-31T11:38:08.036Z,957.83
2022-12-31T11:39:08.004Z,957.83
2022-12-31T11:40:08.146Z,957.79
2022-12-31T11:41:08.021Z,957.75
2022-12-31T11:42:07.997Z,957.79
2022-12-31T11:43:07.993Z,957.77
2022-12-31T11:44:07.997Z,957.82
2022-12-31T11:45:07.936Z,957.79
2022-12-31T11:46:08.024Z,957.78
2022-12-31T11:47:07.917Z,957.78
2022-12-31T11:49:07.925Z,957.65
2022-12-31T11:50:07.905Z,957.62
2022-12-31T11:51:07.859Z,957.69
2022-12-31T11:52:07.915Z,957.69
2022-12-31T11:53:07.879Z,957.71
2022-12-31T11:54:07.823Z,957.65
2022-12-31T11:55:07.832Z,957.65
2022-12-31T11:56:07.835Z,957.64
2022-12-31T11:57:07.817Z,957.56
2022-12-31T11:58:07.773Z,957.63
2022-12-31T11:59:11.053Z,957.62
2022-12-31T12:00:07.781Z,957.61
2022-12-31T12:01:07.768Z,957.64
2022-12-31T12:02:07.744Z,957.59
2022-12-31T12:03:07.780Z,957.64
2022-12-31T12:04:07.723Z,957.64
2022-12-31T12:05:11.038Z,957.61
2022-12-31T12:06:07.689Z,957.57
2022-12-31T12:07:07.667Z,957.58
2022-12-31T12:08:07.641Z,957.54
2022-12-31T12:09:07.631Z,957.55
2022-12-31T12:10:07.635Z,957.48
2022-12-31T12:11:07.592Z,957.52
2022-12-31T12:12:07.588Z,957.50
2022-12-31T12:13:07.589Z,957.46
2022-12-31T12:14:07.565Z,957.37
2022-12-31T12:15:07.540Z,957.42
2022-12-31T12:16:07.579Z,957.39
2022-12-31T12:17:07.516Z,957.47
2022-12-31T12:18:07.535Z,957.54
2022-12-31T12:19:07.485Z,957.46
2022-12-31T12:20:07.491Z,957.35
2022-12-31T12:21:07.485Z,957.35
2022-12-31T12:22:07.447Z,957.33
2022-12-31T12:23:07.430Z,957.34
2022-12-31T12:24:07.423Z,957.31
2022-12-31T12:25:07.433Z,957.30
2022-12-31T12:26:07.424Z,957.28
2022-12-31T12:27:07.394Z,957.28
2022-12-31T12:28:07.397Z,957.27
2022-12-31T12:29:07.372Z,957.30